createdAt,value
2018-04-08T00:00:17.189Z,8.13
2018-04-08T00:02:46.014Z,7.80
2018-04-08T00:05:14.857Z,8.23
2018-04-08T00:07:42.936Z,7.87
2018-04-08T00:10:11.001Z,7.30
2018-04-08T00:12:39.074Z,7.97
2018-04-08T00:15:07.246Z,7.93
2018-04-08T00:17:35.315Z,7.77
2018-04-08T00:20:04.134Z,7.73
2018-04-08T00:22:32.945Z,8.40
2018-04-08T00:25:01.885Z,7.57
2018-04-08T00:27:29.941Z,7.50
2018-04-08T00:29:57.990Z,7.53
2018-04-08T00:32:26.058Z,7.63
2018-04-08T00:34:54.134Z,7.87
2018-04-08T00:37:22.198Z,7.63
2018-04-08T00:39:50.245Z,7.57
2018-04-08T00:42:19.060Z,8.33
2018-04-08T00:44:47.116Z,8.10
2018-04-08T00:47:15.160Z,8.97
2018-04-08T00:49:43.216Z,8.60
2018-04-08T00:52:12.025Z,8.13
2018-04-08T00:54:40.088Z,8.63
2018-04-08T00:57:08.138Z,9.13
2018-04-08T00:59:36.257Z,8.73
2018-04-08T01:02:04.328Z,9.20
2018-04-08T01:04:33.132Z,8.73
2018-04-08T01:07:01.173Z,8.50
2018-04-08T01:09:29.364Z,8.37
2018-04-08T01:11:58.183Z,8.57
2018-04-08T01:14:26.215Z,8.70
2018-04-08T01:16:54.332Z,8.57
2018-04-08T01:19:22.379Z,8.87
2018-04-08T01:21:50.452Z,9.53
2018-04-08T01:24:19.265Z,8.40
2018-04-08T01:26:48.076Z,8.40
2018-04-08T01:29:16.904Z,9.37
2018-04-08T01:31:45.716Z,9.20
2018-04-08T01:34:14.554Z,8.43
2018-04-08T01:36:42.607Z,8.80
2018-04-08T01:39:10.660Z,9.50
2018-04-08T01:41:38.701Z,8.80
2018-04-08T01:44:06.763Z,8.80
2018-04-08T01:46:34.849Z,9.40
2018-04-08T01:49:02.912Z,8.83
2018-04-08T01:51:31.715Z,7.90
2018-04-08T01:53:59.784Z,7.80
2018-04-08T01:56:27.845Z,7.77
2018-04-08T01:58:55.930Z,8.10
2018-04-08T02:01:24.761Z,8.73
2018-04-08T02:03:52.827Z,8.40
2018-04-08T02:06:21.657Z,8.60
2018-04-08T02:08:49.751Z,8.20
2018-04-08T02:11:18.556Z,8.67
2018-04-08T02:13:47.385Z,8.33
2018-04-08T02:16:15.429Z,9.00
2018-04-08T02:18:43.492Z,9.43
2018-04-08T02:21:11.556Z,9.13
2018-04-08T02:23:40.408Z,9.07
2018-04-08T02:26:08.689Z,9.50
2018-04-08T02:28:37.505Z,9.13
2018-04-08T02:31:06.450Z,8.60
2018-04-08T02:33:34.517Z,8.97
2018-04-08T02:36:03.330Z,9.10
2018-04-08T02:38:32.457Z,9.10
2018-04-08T02:41:00.570Z,8.90
2018-04-08T02:43:29.378Z,8.40
2018-04-08T02:45:57.423Z,9.17
2018-04-08T02:48:25.477Z,9.50
2018-04-08T02:50:53.526Z,8.73
2018-04-08T02:53:21.589Z,9.30
2018-04-08T02:55:49.636Z,8.47
2018-04-08T02:58:18.465Z,8.63
2018-04-08T03:00:47.272Z,8.97
2018-04-08T03:03:16.106Z,9.07
2018-04-08T03:05:44.145Z,8.40
2018-04-08T03:08:12.207Z,8.77
2018-04-08T03:10:40.272Z,8.93
2018-04-08T03:13:09.081Z,8.67
2018-04-08T03:15:37.921Z,8.73
2018-04-08T03:18:05.969Z,9.13
2018-04-08T03:20:34.184Z,9.37
2018-04-08T03:23:02.237Z,7.90
2018-04-08T03:25:30.293Z,8.77
2018-04-08T03:27:59.129Z,8.93
2018-04-08T03:30:27.234Z,9.47
2018-04-08T03:32:55.248Z,9.30
2018-04-08T03:35:23.313Z,9.07
2018-04-08T03:37:51.397Z,9.53
2018-04-08T03:40:20.224Z,8.83
2018-04-08T03:42:49.057Z,8.83
2018-04-08T03:45:17.108Z,9.13
2018-04-08T03:47:45.152Z,9.03
2018-04-08T03:50:13.232Z,8.97
2018-04-08T03:52:42.053Z,8.73
2018-04-08T03:55:10.096Z,9.13
2018-04-08T03:57:38.165Z,8.73
2018-04-08T04:00:06.220Z,9.70
2018-04-08T04:02:35.399Z,9.07
2018-04-08T04:05:03.444Z,9.53
2018-04-08T04:07:32.284Z,8.90
2018-04-08T04:10:00.348Z,9.30
2018-04-08T04:12:28.392Z,9.20
2018-04-08T04:14:56.477Z,8.77
2018-04-08T04:17:24.512Z,9.20
2018-04-08T04:20:10.312Z,8.93
2018-04-08T04:22:56.196Z,8.97
2018-04-08T04:28:32.329Z,8.87
2018-04-08T04:31:01.168Z,9.33
2018-04-08T04:33:29.217Z,8.97
2018-04-08T04:35:57.264Z,9.43
2018-04-08T04:38:25.381Z,9.10
2018-04-08T04:40:53.444Z,9.23
2018-04-08T04:43:21.501Z,9.40
2018-04-08T04:45:49.541Z,9.53
2018-04-08T04:48:17.600Z,9.00
2018-04-08T04:50:45.668Z,9.37
2018-04-08T04:53:13.707Z,9.07
2018-04-08T04:55:42.552Z,9.57
2018-04-08T04:58:10.600Z,9.00
2018-04-08T05:00:38.644Z,9.60
2018-04-08T05:03:06.705Z,9.03
2018-04-08T05:05:34.757Z,8.93
2018-04-08T05:08:02.817Z,8.63
2018-04-08T05:10:31.694Z,8.93
2018-04-08T05:12:59.748Z,8.90
2018-04-08T05:15:27.792Z,9.27
2018-04-08T05:17:55.869Z,9.83
2018-04-08T05:20:23.912Z,9.80
2018-04-08T05:22:52.724Z,9.93
2018-04-08T05:25:21.554Z,9.13
2018-04-08T05:27:49.601Z,9.17
2018-04-08T05:30:17.668Z,9.53
2018-04-08T05:32:45.726Z,8.90
2018-04-08T05:35:14.553Z,9.13
2018-04-08T05:37:43.356Z,8.43
2018-04-08T05:40:12.185Z,9.23
2018-04-08T05:42:40.999Z,8.53
2018-04-08T05:45:09.821Z,8.73
2018-04-08T05:47:37.865Z,8.93
2018-04-08T05:50:05.926Z,8.03
2018-04-08T05:52:34.005Z,8.50
2018-04-08T05:55:02.818Z,8.80
2018-04-08T05:57:31.640Z,8.17
2018-04-08T05:59:59.697Z,8.70
2018-04-08T06:02:28.521Z,7.63
2018-04-08T06:04:56.577Z,9.30
2018-04-08T06:07:24.620Z,9.93
2018-04-08T06:09:52.684Z,9.63
2018-04-08T06:12:20.728Z,9.17
2018-04-08T06:14:49.543Z,8.60
2018-04-08T06:17:18.364Z,8.50
2018-04-08T06:19:46.423Z,9.77
2018-04-08T06:22:14.489Z,11.40
2018-04-08T06:24:42.536Z,11.33
2018-04-08T06:27:10.604Z,13.53
2018-04-08T06:29:38.652Z,13.57
2018-04-08T06:32:07.480Z,12.80
2018-04-08T06:34:35.537Z,11.37
2018-04-08T06:37:03.600Z,10.67
2018-04-08T06:39:31.659Z,12.03
2018-04-08T06:42:00.492Z,10.93
2018-04-08T06:44:28.550Z,11.63
2018-04-08T06:46:56.598Z,10.57
2018-04-08T06:49:24.733Z,11.27
2018-04-08T06:51:53.482Z,12.73
2018-04-08T06:54:21.548Z,13.67
2018-04-08T06:56:50.370Z,13.30
2018-04-08T06:59:18.432Z,11.63
2018-04-08T07:01:46.485Z,12.07
2018-04-08T07:04:14.549Z,9.63
2018-04-08T07:06:42.589Z,9.87
2018-04-08T07:09:10.657Z,11.40
2018-04-08T07:11:39.468Z,10.70
2018-04-08T07:14:07.543Z,10.10
2018-04-08T07:16:35.604Z,10.53
2018-04-08T07:19:03.681Z,10.70
2018-04-08T07:21:32.498Z,9.83
2018-04-08T07:24:01.321Z,11.60
2018-04-08T07:26:30.136Z,9.27
2018-04-08T07:28:58.185Z,9.03
2018-04-08T07:31:26.253Z,8.90
2018-04-08T07:33:54.298Z,7.93
2018-04-08T07:36:23.154Z,9.10
2018-04-08T07:38:51.220Z,8.00
2018-04-08T07:41:20.046Z,8.33
2018-04-08T07:43:48.093Z,8.97
2018-04-08T07:46:16.156Z,8.47
2018-04-08T07:48:44.229Z,8.47
2018-04-08T07:51:13.033Z,8.73
2018-04-08T07:53:41.881Z,8.83
2018-04-08T07:56:10.685Z,7.97
2018-04-08T07:58:39.701Z,9.23
2018-04-08T08:01:07.789Z,9.07
2018-04-08T08:03:36.609Z,8.40
2018-04-08T08:06:05.424Z,8.27
2018-04-08T08:08:34.237Z,9.37
2018-04-08T08:11:03.060Z,9.30
2018-04-08T08:13:31.166Z,10.73
2018-04-08T08:15:59.213Z,10.63
2018-04-08T08:18:27.299Z,9.37
2018-04-08T08:20:55.373Z,9.53
2018-04-08T08:23:23.449Z,10.27
2018-04-08T08:25:51.508Z,10.60
2018-04-08T08:28:19.598Z,9.70
2018-04-08T08:30:47.656Z,10.40
2018-04-08T08:33:15.713Z,10.23
2018-04-08T08:35:43.781Z,10.50
2018-04-08T08:38:11.855Z,10.23
2018-04-08T08:40:40.217Z,10.47
2018-04-08T08:43:08.281Z,11.17
2018-04-08T08:45:36.488Z,11.00
2018-04-08T08:48:04.574Z,11.43
2018-04-08T08:50:32.646Z,11.03
2018-04-08T08:53:00.719Z,11.03
2018-04-08T08:55:29.536Z,10.73
2018-04-08T08:57:58.365Z,11.30
2018-04-08T09:00:26.440Z,11.00
2018-04-08T09:02:55.262Z,11.53
2018-04-08T09:05:24.072Z,11.00
2018-04-08T09:07:52.193Z,11.10
2018-04-08T09:10:20.252Z,11.27
2018-04-08T09:12:49.071Z,10.87
2018-04-08T09:15:17.905Z,11.47
2018-04-08T09:17:45.965Z,11.60
2018-04-08T09:20:14.387Z,10.77
2018-04-08T09:22:42.453Z,10.97
2018-04-08T09:25:13.881Z,11.47
2018-04-08T09:27:41.932Z,11.23
2018-04-08T09:30:10.009Z,11.00
2018-04-08T09:32:38.057Z,11.20
2018-04-08T09:35:06.893Z,11.23
2018-04-08T09:37:34.963Z,11.27
2018-04-08T09:40:03.045Z,11.13
2018-04-08T09:42:31.100Z,12.17
2018-04-08T09:44:59.156Z,11.97
2018-04-08T09:47:27.987Z,12.23
2018-04-08T09:49:56.813Z,12.20
2018-04-08T09:52:24.875Z,12.67
2018-04-08T09:54:52.924Z,12.73
2018-04-08T09:57:21.001Z,12.07
2018-04-08T09:59:49.056Z,12.17
2018-04-08T10:05:20.428Z,13.10
2018-04-08T10:07:48.530Z,12.20
2018-04-08T10:10:16.600Z,12.77
2018-04-08T10:12:45.415Z,13.07
2018-04-08T10:15:14.231Z,13.40
2018-04-08T10:17:43.068Z,13.10
2018-04-08T10:20:11.111Z,12.90
2018-04-08T10:22:39.192Z,13.93
2018-04-08T10:25:07.250Z,13.40
2018-04-08T10:27:35.306Z,13.27
2018-04-08T10:30:04.142Z,13.53
2018-04-08T10:32:32.199Z,13.57
2018-04-08T10:35:00.261Z,12.97
2018-04-08T10:37:29.092Z,13.37
2018-04-08T10:39:57.148Z,12.73
2018-04-08T10:42:25.223Z,13.90
2018-04-08T10:44:53.282Z,13.60
2018-04-08T10:47:21.355Z,13.20
2018-04-08T10:49:50.192Z,13.13
2018-04-08T10:52:18.272Z,13.73
2018-04-08T10:54:46.345Z,13.50
2018-04-08T10:57:15.189Z,13.90
2018-04-08T10:59:44.020Z,13.95
2018-04-08T11:02:12.083Z,12.85
2018-04-08T11:04:40.959Z,13.57
2018-04-08T11:07:09.093Z,12.82
2018-04-08T11:09:37.922Z,14.23
2018-04-08T11:12:06.748Z,14.13
2018-04-08T11:14:34.796Z,13.35
2018-04-08T11:17:02.864Z,14.15
2018-04-08T11:19:30.933Z,13.10
2018-04-08T11:21:58.992Z,13.77
2018-04-08T11:24:27.064Z,13.30
2018-04-08T11:26:55.134Z,13.70
2018-04-08T11:29:23.185Z,12.90
2018-04-08T11:31:51.251Z,15.07
2018-04-08T11:34:19.318Z,13.98
2018-04-08T11:36:47.392Z,14.50
2018-04-08T11:39:16.205Z,13.88
2018-04-08T11:41:45.057Z,13.55
2018-04-08T11:44:13.148Z,13.20
2018-04-08T11:46:41.221Z,12.90
2018-04-08T11:49:09.260Z,13.43
2018-04-08T11:51:38.088Z,12.93
2018-04-08T11:54:06.155Z,12.98
2018-04-08T11:56:34.217Z,13.05
2018-04-08T11:59:02.284Z,13.50
2018-04-08T12:01:30.352Z,12.15
2018-04-08T12:03:58.420Z,12.35
2018-04-08T12:06:26.475Z,12.93
2018-04-08T12:08:54.542Z,13.55
2018-04-08T12:11:23.366Z,12.77
2018-04-08T12:13:51.433Z,11.77
2018-04-08T12:16:20.260Z,12.73
2018-04-08T12:18:49.181Z,13.13
2018-04-08T12:21:18.003Z,12.27
2018-04-08T12:23:46.045Z,13.80
2018-04-08T12:26:14.449Z,13.00
2018-04-08T12:28:42.737Z,11.88
2018-04-08T12:31:10.769Z,13.38
2018-04-08T12:33:38.837Z,13.02
2018-04-08T12:36:06.884Z,13.62
2018-04-08T12:38:35.721Z,12.27
2018-04-08T12:41:03.765Z,12.13
2018-04-08T12:43:31.854Z,12.07
2018-04-08T12:45:59.897Z,12.07
2018-04-08T12:48:27.949Z,12.40
2018-04-08T12:50:56.017Z,13.20
2018-04-08T12:53:24.069Z,12.90
2018-04-08T12:55:52.901Z,12.82
2018-04-08T12:58:20.956Z,11.85
2018-04-08T13:00:49.012Z,11.68
2018-04-08T13:03:17.096Z,13.35
2018-04-08T13:05:45.156Z,12.10
2018-04-08T13:08:13.230Z,11.98
2018-04-08T13:10:41.284Z,12.15
2018-04-08T13:13:10.121Z,11.70
2018-04-08T13:15:38.173Z,11.55
2018-04-08T13:18:07.031Z,11.00
2018-04-08T13:20:35.098Z,11.48
2018-04-08T13:23:03.992Z,11.43
2018-04-08T13:25:32.085Z,12.43
2018-04-08T13:28:00.153Z,11.35
2018-04-08T13:30:28.239Z,10.68
2018-04-08T13:32:56.304Z,11.75
2018-04-08T13:35:25.131Z,10.07
2018-04-08T13:37:53.196Z,9.68
2018-04-08T13:40:21.253Z,10.25
2018-04-08T13:42:49.306Z,10.82
2018-04-08T13:45:18.129Z,12.52
2018-04-08T13:47:46.185Z,12.00
2018-04-08T13:50:14.257Z,12.75
2018-04-08T13:52:42.304Z,10.02
2018-04-08T13:55:11.117Z,10.43
2018-04-08T13:57:39.955Z,10.07
2018-04-08T14:00:08.022Z,9.15
2018-04-08T14:02:36.069Z,8.70
2018-04-08T14:05:04.136Z,9.38
2018-04-08T14:07:32.974Z,8.98
2018-04-08T14:10:01.021Z,8.13
2018-04-08T14:12:29.079Z,8.20
2018-04-08T14:14:57.143Z,7.40
2018-04-08T14:17:25.964Z,6.70
2018-04-08T14:19:54.788Z,6.80
2018-04-08T14:22:22.859Z,6.85
2018-04-08T14:24:51.670Z,6.30
2018-04-08T14:27:20.491Z,6.40
2018-04-08T14:29:49.317Z,5.20
2018-04-08T14:32:18.197Z,4.95
2018-04-08T14:34:46.408Z,4.80
2018-04-08T14:37:15.224Z,5.22
2018-04-08T14:39:43.268Z,3.90
2018-04-08T14:42:11.336Z,4.37
2018-04-08T14:44:40.151Z,3.40
2018-04-08T14:47:08.978Z,3.40
2018-04-08T14:49:37.796Z,3.37
2018-04-08T14:52:05.840Z,3.62
2018-04-08T14:54:33.897Z,3.50
2018-04-08T14:57:01.948Z,3.25
2018-04-08T14:59:30.011Z,3.40
2018-04-08T15:01:58.054Z,3.37
2018-04-08T15:04:26.104Z,3.40
2018-04-08T15:06:54.276Z,3.65
2018-04-08T15:09:22.399Z,3.78
2018-04-08T15:11:50.478Z,3.60
2018-04-08T15:14:18.532Z,3.70
2018-04-08T15:16:46.617Z,3.62
2018-04-08T15:19:14.706Z,3.45
2018-04-08T15:21:42.761Z,3.47
2018-04-08T15:24:11.573Z,3.12
2018-04-08T15:26:40.486Z,3.30
2018-04-08T15:29:09.292Z,3.00
2018-04-08T15:31:38.153Z,3.80
2018-04-08T15:52:50.168Z,3.35
2018-04-08T15:55:18.230Z,3.75
2018-04-08T15:57:46.276Z,3.33
2018-04-08T16:00:14.330Z,3.65
2018-04-08T16:02:42.374Z,3.60
2018-04-08T16:05:10.444Z,3.30
2018-04-08T16:07:39.259Z,3.60
2018-04-08T16:10:07.302Z,3.78
2018-04-08T16:12:35.360Z,3.40
2018-04-08T16:15:03.432Z,3.50
2018-04-08T16:17:31.527Z,3.80
2018-04-08T16:19:59.589Z,3.87
2018-04-08T16:22:27.644Z,3.70
2018-04-08T16:24:55.684Z,4.10
2018-04-08T16:27:23.745Z,3.33
2018-04-08T16:29:51.788Z,3.60
2018-04-08T16:32:19.915Z,3.75
2018-04-08T16:34:47.964Z,11.10
2018-04-08T16:37:16.026Z,6.22
2018-04-08T16:39:44.172Z,8.50
2018-04-08T16:42:12.251Z,9.27
2018-04-08T16:44:40.296Z,12.07
2018-04-08T16:47:08.354Z,5.00
2018-04-08T16:49:36.410Z,3.45
2018-04-08T16:52:04.469Z,3.37
2018-04-08T16:54:33.297Z,3.58
2018-04-08T16:57:01.362Z,3.67
2018-04-08T16:59:30.169Z,3.42
2018-04-08T17:01:58.986Z,3.12
2018-04-08T17:04:27.094Z,3.20
2018-04-08T17:06:55.866Z,3.87
2018-04-08T17:09:23.920Z,3.43
2018-04-08T17:11:51.960Z,3.78
2018-04-08T17:14:20.028Z,4.43
2018-04-08T17:16:48.076Z,3.90
2018-04-08T17:19:16.140Z,4.00
2018-04-08T17:21:44.192Z,6.20
2018-04-08T17:24:12.237Z,5.83
2018-04-08T17:26:41.069Z,9.70
2018-04-08T17:29:09.120Z,8.60
2018-04-08T17:31:37.936Z,6.00
2018-04-08T17:34:06.765Z,4.30
2018-04-08T17:36:34.827Z,4.37
2018-04-08T17:39:03.644Z,4.27
2018-04-08T17:41:31.708Z,4.50
2018-04-08T17:44:00.536Z,4.63
2018-04-08T17:46:28.580Z,4.33
2018-04-08T17:48:56.636Z,4.00
2018-04-08T17:51:24.791Z,3.87
2018-04-08T17:53:52.880Z,4.07
2018-04-08T17:56:20.912Z,3.80
2018-04-08T17:58:49.455Z,3.90
2018-04-08T18:01:17.515Z,4.23
2018-04-08T18:03:46.332Z,3.90
2018-04-08T18:06:14.430Z,3.90
2018-04-08T18:08:42.494Z,3.77
2018-04-08T18:11:11.296Z,4.07
2018-04-08T18:13:40.209Z,3.77
2018-04-08T18:16:08.268Z,3.80
2018-04-08T18:18:37.101Z,4.37
2018-04-08T18:21:05.180Z,3.70
2018-04-08T18:23:34.017Z,3.50
2018-04-08T18:26:02.057Z,4.27
2018-04-08T18:28:31.011Z,3.93
2018-04-08T18:30:59.050Z,4.37
2018-04-08T18:33:27.870Z,4.37
2018-04-08T18:35:55.960Z,4.33
2018-04-08T18:38:24.038Z,4.20
2018-04-08T18:40:52.077Z,4.30
2018-04-08T18:43:20.221Z,3.97
2018-04-08T18:45:48.284Z,4.83
2018-04-08T18:48:16.374Z,4.33
2018-04-08T18:50:44.453Z,4.00
2018-04-08T18:53:12.541Z,4.40
2018-04-08T18:55:40.606Z,4.30
2018-04-08T18:58:09.416Z,4.37
2018-04-08T19:00:38.334Z,4.50
2018-04-08T19:03:06.426Z,4.20
2018-04-08T19:05:34.466Z,4.50
2018-04-08T19:08:03.288Z,4.40
2018-04-08T19:10:32.094Z,4.37
2018-04-08T19:13:00.909Z,4.63
2018-04-08T19:15:28.961Z,4.77
2018-04-08T19:18:03.330Z,5.10
2018-04-08T19:20:31.373Z,4.50
2018-04-08T19:22:59.424Z,5.17
2018-04-08T19:25:27.570Z,5.53
2018-04-08T19:27:55.624Z,4.77
2018-04-08T19:30:23.660Z,5.20
2018-04-08T19:32:51.720Z,4.90
2018-04-08T19:35:20.544Z,4.87
2018-04-08T19:37:48.603Z,5.77
2018-04-08T19:40:17.428Z,5.47
2018-04-08T19:42:45.548Z,5.43
2018-04-08T19:45:13.589Z,5.77
2018-04-08T19:47:41.629Z,6.10
2018-04-08T19:50:09.769Z,5.67
2018-04-08T19:52:37.858Z,5.97
2018-04-08T19:55:05.917Z,6.17
2018-04-08T19:57:34.724Z,5.80
2018-04-08T20:00:03.572Z,5.37
2018-04-08T20:02:32.068Z,6.33
2018-04-08T20:05:00.113Z,5.87
2018-04-08T20:07:28.166Z,5.83
2018-04-08T20:09:56.216Z,5.77
2018-04-08T20:12:24.344Z,6.20
2018-04-08T20:14:52.462Z,6.30
2018-04-08T20:17:20.543Z,6.50
2018-04-08T20:19:48.581Z,6.73
2018-04-08T20:22:16.659Z,6.57
2018-04-08T20:24:44.695Z,6.70
2018-04-08T20:27:12.735Z,6.33
2018-04-08T20:29:40.873Z,6.50
2018-04-08T20:32:08.936Z,6.90
2018-04-08T20:34:37.749Z,7.00
2018-04-08T20:37:05.801Z,6.80
2018-04-08T20:39:33.862Z,6.83
2018-04-08T20:42:01.913Z,6.50
2018-04-08T20:44:29.982Z,7.40
2018-04-08T20:46:58.798Z,6.60
2018-04-08T20:49:26.858Z,6.17
2018-04-08T20:51:55.665Z,6.60
2018-04-08T20:54:24.590Z,6.53
2018-04-08T20:56:52.632Z,7.00
2018-04-08T20:59:20.705Z,6.83
2018-04-08T21:01:48.749Z,7.10
2018-04-08T21:04:16.805Z,6.00
2018-04-08T21:06:45.627Z,6.37
2018-04-08T21:09:13.670Z,6.60
2018-04-08T21:11:43.241Z,6.80
2018-04-08T21:14:11.310Z,6.97
2018-04-08T21:16:39.364Z,6.60
2018-04-08T21:19:07.408Z,6.77
2018-04-08T21:21:35.472Z,6.83
2018-04-08T21:24:03.549Z,7.17
2018-04-08T21:26:31.610Z,6.63
2018-04-08T21:28:59.661Z,6.77
2018-04-08T21:31:27.709Z,6.67
2018-04-08T21:33:55.758Z,6.80
2018-04-08T21:36:24.588Z,6.30
2018-04-08T21:38:52.660Z,6.63
2018-04-08T21:41:21.471Z,6.67
2018-04-08T21:43:50.312Z,6.57
2018-04-08T21:46:18.468Z,6.30
2018-04-08T21:48:46.524Z,6.77
2018-04-08T21:51:15.328Z,6.23
2018-04-08T21:53:44.150Z,6.30
2018-04-08T21:56:12.244Z,6.33
2018-04-08T21:58:40.292Z,5.90
2018-04-08T22:01:08.351Z,6.97
2018-04-08T22:03:36.392Z,7.00
2018-04-08T22:06:04.451Z,6.50
2018-04-08T22:08:33.251Z,5.80
2018-04-08T22:11:02.082Z,6.40
2018-04-08T22:13:30.164Z,6.43
2018-04-08T22:15:58.255Z,6.57
2018-04-08T22:18:26.357Z,6.27
2018-04-08T22:20:54.434Z,6.80
2018-04-08T22:23:22.530Z,6.40
2018-04-08T22:25:51.316Z,6.40
2018-04-08T22:28:19.378Z,6.30
2018-04-08T22:30:48.197Z,6.30
2018-04-08T22:33:16.254Z,6.37
2018-04-08T22:35:45.063Z,6.33
2018-04-08T22:38:13.984Z,7.03
2018-04-08T22:40:42.027Z,6.37
2018-04-08T22:43:10.158Z,6.40
2018-04-08T22:45:38.253Z,6.10
2018-04-08T22:48:06.337Z,5.83
2018-04-08T22:50:35.108Z,6.50
2018-04-08T22:53:03.933Z,6.40
2018-04-08T22:55:31.977Z,6.20
2018-04-08T22:58:00.033Z,6.40
2018-04-08T23:00:28.086Z,6.40
2018-04-08T23:02:56.128Z,6.60
2018-04-08T23:05:24.258Z,6.60
2018-04-08T23:07:52.343Z,6.00
2018-04-08T23:10:20.408Z,6.40
2018-04-08T23:12:49.329Z,6.00
2018-04-08T23:15:17.377Z,5.97
2018-04-08T23:17:45.424Z,6.20
2018-04-08T23:20:13.586Z,5.90
2018-04-08T23:22:41.647Z,6.43
2018-04-08T23:25:10.453Z,6.00
2018-04-08T23:27:39.280Z,6.23
2018-04-08T23:30:07.358Z,6.40
2018-04-08T23:32:35.787Z,6.23
2018-04-08T23:35:03.971Z,6.20
2018-04-08T23:37:32.725Z,6.80
2018-04-08T23:40:01.617Z,6.30
2018-04-08T23:42:30.440Z,6.30
2018-04-08T23:44:59.333Z,6.40
2018-04-08T23:47:28.142Z,6.80
2018-04-08T23:49:56.202Z,6.80
2018-04-08T23:52:24.242Z,6.43
2018-04-08T23:54:52.302Z,6.27
2018-04-08T23:57:20.339Z,6.40
2018-04-08T23:59:48.397Z,6.60
